createdAt,value
2024-05-09T00:01:29.109Z,10.98
2024-05-09T00:03:59.808Z,10.96
2024-05-09T00:06:30.504Z,10.92
2024-05-09T00:09:01.138Z,10.90
2024-05-09T00:11:31.852Z,10.97
2024-05-09T00:14:05.205Z,10.98
2024-05-09T00:16:35.981Z,10.90
2024-05-09T00:19:06.625Z,10.93
2024-05-09T00:21:37.217Z,10.90
2024-05-09T00:24:08.281Z,10.87
2024-05-09T00:26:38.823Z,10.90
2024-05-09T00:29:11.999Z,10.78
2024-05-09T00:31:42.496Z,10.75
2024-05-09T00:34:13.042Z,10.71
2024-05-09T00:36:43.511Z,10.60
2024-05-09T00:39:14.067Z,10.61
2024-05-09T00:41:44.584Z,10.54
2024-05-09T00:44:18.166Z,10.59
2024-05-09T00:46:48.714Z,10.50
2024-05-09T00:49:19.336Z,10.51
2024-05-09T00:51:50.003Z,10.43
2024-05-09T00:54:21.296Z,10.48
2024-05-09T00:56:52.475Z,10.41
2024-05-09T00:59:26.887Z,10.41
2024-05-09T01:01:57.630Z,10.32
2024-05-09T01:04:28.213Z,10.25
2024-05-09T01:06:58.774Z,10.22
2024-05-09T01:09:29.331Z,10.18
2024-05-09T01:11:59.874Z,10.19
2024-05-09T01:14:33.137Z,10.16
2024-05-09T01:17:03.605Z,10.14
2024-05-09T01:19:34.559Z,10.06
2024-05-09T01:22:07.850Z,10.03
2024-05-09T01:24:40.981Z,10.02
2024-05-09T01:27:12.469Z,9.97
2024-05-09T01:29:42.940Z,9.95
2024-05-09T01:32:13.675Z,9.95
2024-05-09T01:34:44.252Z,9.95
2024-05-09T01:37:14.775Z,9.91
2024-05-09T01:39:47.924Z,9.88
2024-05-09T01:42:18.670Z,9.89
2024-05-09T01:44:49.085Z,9.84
2024-05-09T01:47:19.732Z,9.81
2024-05-09T01:49:50.262Z,9.83
2024-05-09T01:52:20.904Z,9.70
2024-05-09T01:54:54.092Z,9.68
2024-05-09T01:57:24.519Z,9.73
2024-05-09T01:59:54.902Z,9.68
2024-05-09T02:02:25.555Z,9.58
2024-05-09T02:04:56.390Z,9.57
2024-05-09T02:07:27.980Z,9.53
2024-05-09T02:10:01.087Z,9.55
2024-05-09T02:12:31.722Z,9.52
2024-05-09T02:15:02.177Z,9.48
2024-05-09T02:17:32.763Z,9.48
2024-05-09T02:20:03.694Z,9.43
2024-05-09T02:22:36.296Z,9.35
2024-05-09T02:25:09.747Z,9.29
2024-05-09T02:27:40.193Z,9.29
2024-05-09T02:30:18.968Z,9.29
2024-05-09T02:32:56.722Z,9.28
2024-05-09T02:35:27.347Z,9.27
2024-05-09T02:37:55.259Z,9.22
2024-05-09T02:40:36.275Z,9.23
2024-05-09T02:43:06.720Z,9.11
2024-05-09T02:45:37.470Z,9.07
2024-05-09T02:48:06.976Z,9.10
2024-05-09T02:50:39.703Z,9.08
2024-05-09T02:53:08.896Z,9.09
2024-05-09T02:55:45.943Z,9.09
2024-05-09T02:58:13.828Z,9.06
2024-05-09T03:00:44.419Z,9.08
2024-05-09T03:03:14.499Z,9.05
2024-05-09T03:05:46.792Z,9.03
2024-05-09T03:08:15.077Z,8.94
2024-05-09T03:10:48.656Z,8.99
2024-05-09T03:13:16.742Z,9.03
2024-05-09T03:15:47.372Z,9.05
2024-05-09T03:18:15.594Z,9.01
2024-05-09T03:20:46.432Z,8.95
2024-05-09T03:23:14.349Z,8.97
2024-05-09T03:25:44.923Z,8.96
2024-05-09T03:28:15.427Z,8.91
2024-05-09T03:30:45.908Z,8.92
2024-05-09T03:33:15.400Z,8.93
2024-05-09T03:35:47.382Z,8.95
2024-05-09T03:38:18.385Z,8.90
2024-05-09T03:40:50.217Z,8.91
2024-05-09T03:43:23.951Z,8.92
2024-05-09T03:45:54.397Z,8.86
2024-05-09T03:48:22.468Z,8.81
2024-05-09T03:50:53.259Z,8.79
2024-05-09T03:53:22.929Z,8.75
2024-05-09T03:55:53.477Z,8.78
2024-05-09T03:58:23.952Z,8.72
2024-05-09T04:00:54.459Z,8.74
2024-05-09T04:03:22.574Z,8.77
2024-05-09T04:05:53.280Z,8.77
2024-05-09T04:08:21.295Z,8.67
2024-05-09T04:10:51.897Z,8.67
2024-05-09T04:13:19.728Z,8.64
2024-05-09T04:15:52.914Z,8.53
2024-05-09T04:18:20.918Z,8.61
2024-05-09T04:20:51.461Z,8.68
2024-05-09T04:23:19.337Z,8.68
2024-05-09T04:25:49.895Z,8.70
2024-05-09T04:28:17.902Z,8.64
2024-05-09T04:30:48.336Z,8.73
2024-05-09T04:33:20.217Z,8.69
2024-05-09T04:35:51.326Z,8.70
2024-05-09T04:38:19.342Z,8.62
2024-05-09T04:40:50.004Z,8.66
2024-05-09T04:43:19.562Z,8.65
2024-05-09T04:45:50.210Z,8.69
2024-05-09T04:48:20.812Z,8.71
2024-05-09T04:50:51.538Z,8.75
2024-05-09T04:53:19.483Z,8.81
2024-05-09T04:55:50.113Z,8.78
2024-05-09T04:58:17.988Z,8.81
2024-05-09T05:00:48.486Z,8.90
2024-05-09T05:03:16.974Z,8.87
2024-05-09T05:05:50.631Z,8.69
2024-05-09T05:08:19.348Z,8.65
2024-05-09T05:10:50.540Z,8.63
2024-05-09T05:13:23.723Z,8.74
2024-05-09T05:15:57.512Z,8.72
2024-05-09T05:18:27.519Z,8.76
2024-05-09T05:21:01.094Z,8.75
2024-05-09T05:23:29.013Z,8.77
2024-05-09T05:25:59.552Z,8.72
2024-05-09T05:28:27.525Z,8.67
2024-05-09T05:30:57.970Z,8.78
2024-05-09T05:33:25.934Z,8.84
2024-05-09T05:35:57.238Z,8.97
2024-05-09T05:38:28.617Z,8.90
2024-05-09T05:40:59.499Z,8.95
2024-05-09T05:43:27.570Z,9.05
2024-05-09T05:45:58.175Z,9.10
2024-05-09T05:48:26.194Z,9.20
2024-05-09T05:50:56.812Z,9.28
2024-05-09T05:53:27.425Z,9.36
2024-05-09T05:55:57.999Z,9.36
2024-05-09T05:58:25.932Z,9.48
2024-05-09T06:00:56.735Z,9.47
2024-05-09T06:03:24.705Z,9.55
2024-05-09T06:05:55.261Z,9.59
2024-05-09T06:08:24.165Z,9.68
2024-05-09T06:10:58.506Z,9.64
2024-05-09T06:13:26.431Z,9.70
2024-05-09T06:15:56.968Z,9.67
2024-05-09T06:18:25.286Z,9.68
2024-05-09T06:20:55.978Z,9.70
2024-05-09T06:23:23.903Z,9.79
2024-05-09T06:25:54.441Z,9.90
2024-05-09T06:28:24.921Z,9.97
2024-05-09T06:30:55.391Z,9.98
2024-05-09T06:33:23.412Z,10.12
2024-05-09T06:35:59.136Z,10.08
2024-05-09T06:38:27.174Z,10.27
2024-05-09T06:40:58.157Z,10.25
2024-05-09T06:43:28.670Z,10.42
2024-05-09T06:45:59.143Z,10.67
2024-05-09T06:48:27.228Z,10.80
2024-05-09T06:50:57.893Z,11.13
2024-05-09T06:53:25.894Z,11.18
2024-05-09T06:55:56.472Z,11.45
2024-05-09T06:58:24.322Z,11.50
2024-05-09T07:00:57.636Z,11.69
2024-05-09T07:03:25.774Z,11.94
2024-05-09T07:05:56.396Z,12.16
2024-05-09T07:08:24.436Z,12.41
2024-05-09T07:10:55.082Z,12.27
2024-05-09T07:13:23.092Z,12.52
2024-05-09T07:15:53.646Z,12.62
2024-05-09T07:18:24.390Z,12.75
2024-05-09T07:20:54.975Z,13.21
2024-05-09T07:23:22.874Z,13.72
2024-05-09T07:25:53.434Z,14.07
2024-05-09T07:28:21.470Z,14.37
2024-05-09T07:30:52.023Z,14.76
2024-05-09T07:33:22.533Z,15.06
2024-05-09T07:35:57.013Z,15.23
2024-05-09T07:38:27.526Z,15.15
2024-05-09T07:40:55.545Z,15.66
2024-05-09T07:43:27.955Z,16.02
2024-05-09T07:45:58.262Z,16.23
2024-05-09T07:50:01.410Z,16.37
2024-05-09T07:53:58.273Z,16.77
2024-05-09T07:56:28.596Z,16.55
2024-05-09T07:58:59.334Z,16.81
2024-05-09T08:01:27.598Z,16.94
2024-05-09T08:03:58.584Z,17.12
2024-05-09T08:06:29.231Z,17.49
2024-05-09T08:09:05.153Z,17.78
2024-05-09T08:11:35.854Z,17.77
2024-05-09T08:14:06.440Z,17.93
2024-05-09T08:16:34.280Z,18.00
2024-05-09T08:19:05.407Z,18.32
2024-05-09T08:21:36.118Z,18.40
2024-05-09T08:24:06.881Z,18.56
2024-05-09T08:26:34.726Z,18.58
2024-05-09T08:29:05.300Z,18.41
2024-05-09T08:31:37.311Z,18.41
2024-05-09T08:34:08.522Z,18.75
2024-05-09T08:36:40.808Z,18.82
2024-05-09T08:39:11.333Z,18.56
2024-05-09T08:41:42.145Z,18.59
2024-05-09T08:44:12.755Z,18.73
2024-05-09T08:46:41.442Z,19.02
2024-05-09T08:49:12.093Z,19.03
2024-05-09T08:51:42.944Z,19.26
2024-05-09T08:54:13.720Z,19.14
2024-05-09T08:56:45.838Z,19.36
2024-05-09T08:59:20.710Z,19.47
2024-05-09T09:01:48.962Z,19.87
2024-05-09T09:04:19.952Z,19.76
2024-05-09T09:06:53.112Z,19.91
2024-05-09T09:09:23.798Z,19.96
2024-05-09T09:11:51.814Z,20.01
2024-05-09T09:14:22.345Z,19.98
2024-05-09T09:16:51.802Z,19.77
2024-05-09T09:19:22.502Z,19.74
2024-05-09T09:21:55.811Z,20.03
2024-05-09T09:24:23.722Z,19.23
2024-05-09T09:26:54.278Z,19.54
2024-05-09T09:29:22.444Z,19.93
2024-05-09T09:32:00.952Z,20.19
2024-05-09T09:34:30.263Z,20.27
2024-05-09T09:37:06.838Z,20.33
2024-05-09T09:39:35.832Z,20.41
2024-05-09T09:42:07.896Z,20.50
2024-05-09T09:44:39.467Z,20.85
2024-05-09T09:47:11.658Z,21.06
2024-05-09T09:49:40.137Z,20.78
2024-05-09T09:52:13.691Z,20.45
2024-05-09T09:54:42.144Z,20.56
2024-05-09T09:57:12.744Z,20.84
2024-05-09T09:59:43.472Z,21.06
2024-05-09T10:02:14.483Z,21.00
2024-05-09T10:04:42.652Z,20.33
2024-05-09T10:07:16.307Z,20.65
2024-05-09T10:09:44.428Z,20.81
2024-05-09T10:12:16.715Z,20.70
2024-05-09T10:14:48.426Z,20.90
2024-05-09T10:17:20.235Z,20.85
2024-05-09T10:19:48.480Z,20.76
2024-05-09T10:22:31.773Z,20.80
2024-05-09T10:25:05.352Z,20.44
2024-05-09T10:27:36.356Z,20.60
2024-05-09T10:30:11.360Z,21.02
2024-05-09T10:32:45.219Z,20.79
2024-05-09T10:35:15.102Z,20.63
2024-05-09T10:37:48.421Z,20.47
2024-05-09T10:40:23.407Z,20.41
2024-05-09T10:43:02.552Z,20.75
2024-05-09T10:45:32.749Z,20.91
2024-05-09T10:48:03.557Z,21.21
2024-05-09T10:50:34.254Z,21.19
2024-05-09T10:53:08.089Z,21.43
2024-05-09T10:55:35.994Z,21.33
2024-05-09T10:58:06.826Z,21.26
2024-05-09T11:00:36.506Z,21.01
2024-05-09T11:03:08.093Z,20.88
2024-05-09T11:05:36.381Z,20.61
2024-05-09T11:08:10.484Z,20.49
2024-05-09T11:10:38.930Z,20.08
2024-05-09T11:13:09.639Z,19.89
2024-05-09T11:15:39.094Z,19.85
2024-05-09T11:18:09.904Z,19.85
2024-05-09T11:20:38.396Z,19.63
2024-05-09T11:23:11.929Z,19.57
2024-05-09T11:25:39.965Z,19.22
2024-05-09T11:28:10.624Z,19.23
2024-05-09T11:30:38.636Z,19.40
2024-05-09T11:33:09.397Z,19.93
2024-05-09T11:35:37.489Z,20.46
2024-05-09T11:38:08.255Z,20.62
2024-05-09T11:40:41.885Z,20.79
2024-05-09T11:43:10.078Z,20.16
2024-05-09T11:45:40.818Z,19.97
2024-05-09T11:48:09.276Z,20.06
2024-05-09T11:50:39.929Z,19.94
2024-05-09T11:53:07.915Z,19.91
2024-05-09T11:55:41.122Z,19.77
2024-05-09T11:58:09.240Z,19.52
2024-05-09T12:00:39.993Z,19.92
2024-05-09T12:03:08.089Z,20.13
2024-05-09T12:05:38.881Z,20.64
2024-05-09T12:08:07.483Z,20.70
2024-05-09T12:10:38.259Z,20.69
2024-05-09T12:13:09.089Z,20.65
2024-05-09T12:15:39.718Z,20.69
2024-05-09T12:18:08.333Z,20.76
2024-05-09T12:20:40.215Z,20.66
2024-05-09T12:23:10.116Z,20.46
2024-05-09T12:25:41.883Z,20.11
2024-05-09T12:28:12.563Z,20.18
2024-05-09T12:30:43.235Z,20.32
2024-05-09T12:33:13.127Z,20.40
2024-05-09T12:35:46.676Z,20.32
2024-05-09T12:38:16.301Z,20.44
2024-05-09T12:40:46.901Z,20.72
2024-05-09T12:43:18.002Z,20.82
2024-05-09T12:45:48.654Z,20.95
2024-05-09T12:48:16.849Z,20.77
2024-05-09T12:50:47.586Z,20.72
2024-05-09T12:53:15.687Z,20.60
2024-05-09T12:55:53.587Z,20.31
2024-05-09T12:58:27.876Z,20.25
2024-05-09T13:00:58.773Z,20.11
2024-05-09T13:03:26.861Z,20.11
2024-05-09T13:05:57.676Z,20.13
2024-05-09T13:08:25.782Z,20.20
2024-05-09T13:10:56.464Z,20.28
2024-05-09T13:13:24.505Z,20.19
2024-05-09T13:15:57.979Z,20.48
2024-05-09T13:18:28.723Z,20.64
2024-05-09T13:20:56.742Z,20.38
2024-05-09T13:23:27.456Z,20.25
2024-05-09T13:25:55.472Z,19.94
2024-05-09T13:28:26.089Z,19.79
2024-05-09T13:30:56.786Z,19.87
2024-05-09T13:33:27.522Z,20.02
2024-05-09T13:35:55.604Z,19.98
2024-05-09T13:38:26.190Z,20.02
2024-05-09T13:40:54.331Z,20.26
2024-05-09T13:43:25.617Z,19.98
2024-05-09T13:45:57.413Z,19.97
2024-05-09T13:48:28.437Z,20.00
2024-05-09T13:50:57.134Z,19.96
2024-05-09T13:53:27.738Z,19.88
2024-05-09T13:55:55.836Z,19.84
2024-05-09T13:58:26.637Z,19.81
2024-05-09T14:00:58.310Z,19.88
2024-05-09T14:03:29.958Z,19.89
2024-05-09T14:05:58.337Z,19.88
2024-05-09T14:08:29.067Z,19.84
2024-05-09T14:10:57.098Z,19.63
2024-05-09T14:13:27.713Z,19.40
2024-05-09T14:15:58.691Z,19.47
2024-05-09T14:18:29.505Z,19.56
2024-05-09T14:20:57.538Z,19.61
2024-05-09T14:23:28.164Z,19.89
2024-05-09T14:25:56.422Z,20.00
2024-05-09T14:28:27.987Z,20.22
2024-05-09T14:31:00.358Z,20.17
2024-05-09T14:33:31.304Z,20.11
2024-05-09T14:35:59.474Z,20.03
2024-05-09T14:38:30.437Z,20.18
2024-05-09T14:40:58.713Z,20.16
2024-05-09T14:43:29.488Z,20.24
2024-05-09T14:46:00.209Z,20.18
2024-05-09T14:48:31.112Z,20.25
2024-05-09T14:50:59.101Z,20.33
2024-05-09T14:53:29.704Z,20.40
2024-05-09T14:55:57.867Z,20.27
2024-05-09T14:58:28.498Z,20.11
2024-05-09T15:00:56.529Z,19.85
2024-05-09T15:03:30.063Z,19.85
2024-05-09T15:05:58.646Z,19.94
2024-05-09T15:08:29.384Z,19.90
2024-05-09T15:10:57.796Z,20.04
2024-05-09T15:13:28.812Z,20.20
2024-05-09T15:15:56.968Z,20.25
2024-05-09T15:18:30.384Z,20.26
2024-05-09T15:20:58.613Z,20.26
2024-05-09T15:23:29.195Z,20.26
2024-05-09T15:25:57.120Z,20.17
2024-05-09T15:28:27.620Z,20.04
2024-05-09T15:30:55.657Z,19.98
2024-05-09T15:33:27.870Z,19.83
2024-05-09T15:35:58.508Z,19.76
2024-05-09T15:38:29.082Z,19.67
2024-05-09T15:40:57.042Z,19.67
2024-05-09T15:43:28.232Z,19.70
2024-05-09T15:45:56.457Z,19.70
2024-05-09T15:48:27.392Z,19.68
2024-05-09T15:50:55.480Z,19.64
2024-05-09T15:53:29.202Z,19.59
2024-05-09T15:55:57.089Z,19.68
2024-05-09T15:58:27.729Z,19.65
2024-05-09T16:00:55.913Z,19.67
2024-05-09T16:03:26.707Z,19.69
2024-05-09T16:05:57.553Z,19.58
2024-05-09T16:08:30.852Z,19.62
2024-05-09T16:10:59.322Z,19.63
2024-05-09T16:13:29.884Z,19.58
2024-05-09T16:15:57.925Z,19.54
2024-05-09T16:18:28.613Z,19.49
2024-05-09T16:21:00.197Z,19.48
2024-05-09T16:23:33.546Z,19.39
2024-05-09T16:26:01.456Z,19.39
2024-05-09T16:28:32.169Z,19.29
2024-05-09T16:31:01.548Z,19.21
2024-05-09T16:33:32.433Z,19.31
2024-05-09T16:36:00.620Z,19.20
2024-05-09T16:38:33.860Z,19.30
2024-05-09T16:41:01.962Z,19.33
2024-05-09T16:43:32.687Z,19.33
2024-05-09T16:46:01.216Z,19.28
2024-05-09T16:48:32.075Z,19.34
2024-05-09T16:51:00.104Z,19.39
2024-05-09T16:53:33.365Z,19.35
2024-05-09T16:56:02.397Z,19.32
2024-05-09T16:58:33.157Z,19.34
2024-05-09T17:01:01.211Z,19.35
2024-05-09T17:03:31.993Z,19.33
2024-05-09T17:06:03.249Z,19.33
2024-05-09T17:08:37.612Z,19.27
2024-05-09T17:11:05.696Z,19.25
2024-05-09T17:13:39.289Z,19.17
2024-05-09T17:16:11.120Z,19.17
2024-05-09T17:18:42.004Z,19.16
2024-05-09T17:21:12.505Z,19.19
2024-05-09T17:23:43.184Z,19.10
2024-05-09T17:26:13.756Z,19.11
2024-05-09T17:28:41.642Z,19.09
2024-05-09T17:31:12.626Z,19.17
2024-05-09T17:33:40.873Z,19.14
2024-05-09T17:36:11.594Z,19.05
2024-05-09T17:38:39.482Z,19.07
2024-05-09T17:41:12.665Z,19.11
2024-05-09T17:43:40.584Z,19.15
2024-05-09T17:46:11.145Z,19.15
2024-05-09T17:48:39.362Z,19.03
2024-05-09T17:51:10.018Z,19.02
2024-05-09T17:53:40.027Z,18.98
2024-05-09T17:56:13.506Z,18.93
2024-05-09T17:58:41.620Z,18.94
2024-05-09T18:01:12.549Z,18.83
2024-05-09T18:03:40.698Z,18.80
2024-05-09T18:06:11.428Z,18.80
2024-05-09T18:08:39.417Z,18.69
2024-05-09T18:11:10.172Z,18.66
2024-05-09T18:13:40.855Z,18.67
2024-05-09T18:16:11.475Z,18.55
2024-05-09T18:18:39.683Z,18.40
2024-05-09T18:21:10.236Z,18.33
2024-05-09T18:23:38.258Z,18.35
2024-05-09T18:26:09.074Z,18.29
2024-05-09T18:28:36.989Z,18.22
2024-05-09T18:31:10.340Z,18.16
2024-05-09T18:33:38.523Z,18.05
2024-05-09T18:36:10.478Z,18.04
2024-05-09T18:38:39.418Z,17.83
2024-05-09T18:41:10.093Z,17.82
2024-05-09T18:43:44.654Z,17.77
2024-05-09T18:46:19.000Z,17.69
2024-05-09T18:48:47.189Z,17.57
2024-05-09T18:51:17.762Z,17.50
2024-05-09T18:53:46.315Z,17.42
2024-05-09T18:56:17.035Z,17.32
2024-05-09T18:58:45.286Z,17.24
2024-05-09T19:01:18.568Z,17.13
2024-05-09T19:03:48.484Z,17.03
2024-05-09T19:06:22.788Z,16.91
2024-05-09T19:08:52.516Z,16.80
2024-05-09T19:11:23.186Z,16.67
2024-05-09T19:13:51.129Z,16.61
2024-05-09T19:16:24.356Z,16.49
2024-05-09T19:18:53.855Z,16.45
2024-05-09T19:21:24.498Z,16.36
2024-05-09T19:23:52.682Z,16.33
2024-05-09T19:26:23.220Z,16.33
2024-05-09T19:28:52.046Z,16.32
2024-05-09T19:31:25.552Z,16.29
2024-05-09T19:33:53.711Z,16.15
2024-05-09T19:36:24.296Z,16.12
2024-05-09T19:38:52.290Z,16.04
2024-05-09T19:41:22.936Z,15.90
2024-05-09T19:43:51.067Z,15.73
2024-05-09T19:46:22.054Z,15.67
2024-05-09T19:48:52.847Z,15.58
2024-05-09T19:51:23.505Z,15.51
2024-05-09T19:53:51.472Z,15.39
2024-05-09T19:56:22.083Z,15.36
2024-05-09T19:58:49.999Z,15.24
2024-05-09T20:01:20.980Z,15.25
2024-05-09T20:03:49.345Z,15.21
2024-05-09T20:06:24.519Z,15.18
2024-05-09T20:08:57.086Z,15.06
2024-05-09T20:11:28.778Z,15.00
2024-05-09T20:13:58.427Z,14.88
2024-05-09T20:16:28.959Z,14.84
2024-05-09T20:18:57.154Z,14.77
2024-05-09T20:21:30.472Z,14.81
2024-05-09T20:23:58.402Z,14.73
2024-05-09T20:26:30.949Z,14.71
2024-05-09T20:28:59.051Z,14.63
2024-05-09T20:31:29.685Z,14.71
2024-05-09T20:33:57.683Z,14.59
2024-05-09T20:36:30.870Z,14.54
2024-05-09T20:38:58.907Z,14.47
2024-05-09T20:41:29.437Z,14.45
2024-05-09T20:44:00.611Z,14.27
2024-05-09T20:46:31.231Z,14.18
2024-05-09T20:48:59.260Z,14.22
2024-05-09T20:51:32.988Z,14.24
2024-05-09T20:54:00.916Z,14.20
2024-05-09T20:56:31.425Z,14.13
2024-05-09T20:58:59.346Z,14.17
2024-05-09T21:01:29.960Z,14.21
2024-05-09T21:03:58.064Z,14.19
2024-05-09T21:06:28.757Z,14.04
2024-05-09T21:08:59.278Z,14.00
2024-05-09T21:11:29.818Z,14.00
2024-05-09T21:13:57.949Z,13.93
2024-05-09T21:16:28.606Z,13.94
2024-05-09T21:18:56.585Z,13.85
2024-05-09T21:21:27.115Z,13.84
2024-05-09T21:23:54.957Z,13.86
2024-05-09T21:26:29.497Z,13.84
2024-05-09T21:28:57.355Z,13.83
2024-05-09T21:31:27.994Z,13.79
2024-05-09T21:33:56.167Z,13.80
2024-05-09T21:36:26.717Z,13.75
2024-05-09T21:38:54.652Z,13.73
2024-05-09T21:41:27.883Z,13.61
2024-05-09T21:43:55.893Z,13.50
2024-05-09T21:46:26.654Z,13.44
2024-05-09T21:48:55.606Z,13.40
2024-05-09T21:51:26.193Z,13.34
2024-05-09T21:53:54.045Z,13.48
2024-05-09T21:56:24.700Z,13.40
2024-05-09T21:58:55.272Z,13.28
2024-05-09T22:01:25.866Z,13.24
2024-05-09T22:03:54.069Z,13.27
2024-05-09T22:06:24.816Z,13.09
2024-05-09T22:08:52.673Z,13.18
2024-05-09T22:11:23.251Z,13.08
2024-05-09T22:13:51.190Z,13.02
2024-05-09T22:16:24.646Z,12.98
2024-05-09T22:18:55.386Z,12.98
2024-05-09T22:21:23.405Z,12.99
2024-05-09T22:23:54.658Z,12.92
2024-05-09T22:26:22.592Z,12.90
2024-05-09T22:28:53.078Z,12.79
2024-05-09T22:31:23.731Z,12.73
2024-05-09T22:33:54.587Z,12.71
2024-05-09T22:36:22.673Z,12.75
2024-05-09T22:38:53.165Z,12.70
2024-05-09T22:41:20.989Z,12.64
2024-05-09T22:43:51.482Z,12.63
2024-05-09T22:46:19.400Z,12.53
2024-05-09T22:48:52.659Z,12.50
2024-05-09T22:51:20.641Z,12.49
2024-05-09T22:53:51.355Z,12.46
2024-05-09T22:56:26.354Z,12.39
2024-05-09T22:58:56.974Z,12.42
2024-05-09T23:01:26.707Z,12.40
2024-05-09T23:04:00.248Z,12.38
2024-05-09T23:06:28.394Z,12.28
2024-05-09T23:08:58.912Z,12.24
2024-05-09T23:11:26.951Z,12.17
2024-05-09T23:13:57.562Z,12.17
2024-05-09T23:16:25.683Z,12.08
2024-05-09T23:18:56.441Z,12.04
2024-05-09T23:21:27.088Z,11.91
2024-05-09T23:23:57.684Z,11.85
2024-05-09T23:26:25.696Z,11.77
2024-05-09T23:28:56.229Z,11.69
2024-05-09T23:31:24.322Z,11.62
2024-05-09T23:33:55.389Z,11.68
2024-05-09T23:36:23.397Z,11.49
2024-05-09T23:38:56.583Z,11.45
2024-05-09T23:41:24.611Z,11.47
2024-05-09T23:43:55.211Z,11.43
2024-05-09T23:46:23.369Z,11.32
2024-05-09T23:48:54.437Z,11.22
2024-05-09T23:51:22.513Z,11.16
2024-05-09T23:53:53.214Z,11.14
2024-05-09T23:56:23.851Z,11.11
2024-05-09T23:58:54.440Z,11.03
